Time;durP1;ratioP1;P1;durP2;ratioP2;P2;SDS_P1;SDS_P2;PMS_P1;PMS_P2;Temp;Humidity;BMP_temperature;BMP_pressure;BME280_temperature;BME280_humidity;BME280_pressure;Samples;Min_cycle;Max_cycle;Signal;HPM_P1;HPM_P2
2023/01/01 00:01:24;;;;;;;18.48;8.70;;;;;;;18.62;63.83;100597.75;5016122;28;20048;-72
2023/01/01 00:03:52;;;;;;;29.10;11.27;;;;;;;18.55;63.31;100620.41;5043743;28;20493;-73
2023/01/01 00:06:19;;;;;;;27.77;8.13;;;;;;;18.52;63.47;100615.75;5043433;28;20889;-73
2023/01/01 00:08:46;;;;;;;16.90;7.40;;;;;;;18.52;63.86;100618.53;5042471;28;20048;-73
2023/01/01 00:11:13;;;;;;;11.88;5.50;;;;;;;18.56;62.99;100617.16;5045289;28;20056;-73
2023/01/01 00:13:41;;;;;;;17.42;7.55;;;;;;;18.59;63.01;100621.84;5043642;28;20053;-72
2023/01/01 00:16:10;;;;;;;26.30;9.63;;;;;;;18.49;61.96;100616.66;5043372;28;20056;-72
2023/01/01 00:18:38;;;;;;;22.45;9.55;;;;;;;18.55;60.66;100631.63;5044879;28;20159;-72
2023/01/01 00:21:10;;;;;;;22.30;9.75;;;;;;;18.54;62.02;100622.44;5039118;28;20052;-73
2023/01/01 00:23:37;;;;;;;14.60;5.00;;;;;;;18.59;62.13;100621.09;5039393;28;20045;-71
2023/01/01 00:26:12;;;;;;;11.75;5.18;;;;;;;18.52;62.11;100619.31;5045415;28;20049;-72
2023/01/01 00:28:40;;;;;;;19.08;8.10;;;;;;;18.44;62.05;100620.78;5043677;28;20048;-74
2023/01/01 00:31:12;;;;;;;10.73;4.15;;;;;;;18.51;62.03;100611.34;5046038;28;20044;-74
2023/01/01 00:33:38;;;;;;;16.48;6.25;;;;;;;18.43;63.15;100608.03;5036008;28;20049;-73
2023/01/01 00:36:14;;;;;;;11.75;5.43;;;;;;;18.38;64.38;100599.41;5040736;28;20060;-73
2023/01/01 00:38:43;;;;;;;18.35;6.97;;;;;;;18.30;64.06;100614.88;5040848;28;20044;-73
2023/01/01 00:41:10;;;;;;;13.65;5.10;;;;;;;18.31;62.94;100600.41;5043340;28;20056;-72
2023/01/01 00:43:37;;;;;;;9.00;3.67;;;;;;;18.34;64.42;100607.91;5042438;28;20049;-73
2023/01/01 00:46:05;;;;;;;11.85;3.83;;;;;;;18.28;62.95;100600.50;5046180;28;20052;-74
2023/01/01 00:48:32;;;;;;;16.45;5.40;;;;;;;18.26;62.61;100623.38;5045458;28;20083;-73
2023/01/01 00:50:59;;;;;;;17.60;5.10;;;;;;;18.28;62.56;100637.72;5041844;28;20048;-73
2023/01/01 00:53:25;;;;;;;18.02;7.43;;;;;;;18.18;62.83;100596.06;5042343;28;20045;-73
2023/01/01 00:55:55;;;;;;;23.95;8.68;;;;;;;18.17;62.88;100628.09;5040051;28;20577;-74
2023/01/01 00:58:23;;;;;;;22.55;7.80;;;;;;;18.10;64.11;100617.94;5042941;28;20163;-72
2023/01/01 01:00:51;;;;;;;27.15;11.95;;;;;;;18.14;64.30;100615.00;5045715;28;20055;-72
2023/01/01 01:03:29;;;;;;;17.67;6.95;;;;;;;18.03;65.30;100626.56;5040657;28;20055;-73
2023/01/01 01:06:09;;;;;;;27.90;12.52;;;;;;;17.92;65.86;100628.91;5045830;28;20118;-73
2023/01/01 01:08:39;;;;;;;25.02;8.30;;;;;;;17.91;66.26;100621.75;5034726;28;20052;-71
2023/01/01 01:11:16;;;;;;;23.50;11.05;;;;;;;17.86;66.23;100628.69;5038776;28;20057;-71
2023/01/01 01:13:44;;;;;;;29.40;14.38;;;;;;;17.82;65.26;100627.28;5041424;28;20592;-71
2023/01/01 01:16:20;;;;;;;31.50;15.05;;;;;;;17.85;64.45;100624.34;5044308;28;20048;-74
2023/01/01 01:18:53;;;;;;;27.38;11.55;;;;;;;17.88;63.84;100623.44;5047209;28;20049;-73
2023/01/01 01:21:21;;;;;;;31.35;15.32;;;;;;;17.89;63.79;100625.00;5048716;28;20246;-73
2023/01/01 01:23:49;;;;;;;23.48;12.23;;;;;;;17.94;63.60;100621.66;5049108;28;20904;-74
2023/01/01 01:26:24;;;;;;;18.83;9.10;;;;;;;17.94;63.55;100634.84;5048245;28;20056;-73
2023/01/01 01:28:52;;;;;;;18.50;9.13;;;;;;;17.86;63.52;100627.94;5047172;28;20053;-72
2023/01/01 01:31:20;;;;;;;24.48;12.95;;;;;;;17.84;62.45;100633.97;5049007;28;20048;-74
2023/01/01 01:33:48;;;;;;;15.27;7.47;;;;;;;17.86;62.81;100630.72;5053326;28;20903;-72
2023/01/01 01:36:17;;;;;;;15.85;6.97;;;;;;;17.75;62.95;100647.06;5078053;28;20052;-72
2023/01/01 01:38:44;;;;;;;18.33;7.10;;;;;;;17.86;61.93;100647.53;5070322;28;20041;-73
2023/01/01 01:41:13;;;;;;;23.05;8.18;;;;;;;17.76;61.87;100643.81;5073193;28;20064;-73
2023/01/01 01:43:55;;;;;;;11.38;4.90;;;;;;;17.83;60.52;100648.41;5065576;28;20044;-72
2023/01/01 01:46:35;;;;;;;18.35;7.22;;;;;;;17.83;60.81;100621.19;5070001;28;20553;-72
2023/01/01 01:49:12;;;;;;;12.25;3.65;;;;;;;17.77;60.86;100633.41;5069209;28;20063;-73
2023/01/01 01:51:39;;;;;;;16.95;6.72;;;;;;;17.65;61.09;100656.59;5065849;28;20490;-70
2023/01/01 01:54:11;;;;;;;15.93;6.60;;;;;;;17.68;61.48;100656.47;5070229;28;20045;-72
2023/01/01 01:56:46;;;;;;;17.27;7.82;;;;;;;17.64;61.73;100664.19;5070324;28;20052;-72
2023/01/01 01:59:12;;;;;;;16.38;7.30;;;;;;;17.62;62.04;100660.28;5072164;28;20052;-72
2023/01/01 02:01:39;;;;;;;27.23;13.75;;;;;;;17.49;62.64;100662.28;5069874;28;20502;-72
2023/01/01 02:04:06;;;;;;;23.73;10.82;;;;;;;17.42;63.38;100673.69;5069420;28;20041;-71
2023/01/01 02:06:34;;;;;;;25.17;11.73;;;;;;;17.36;62.89;100669.81;5066310;28;20048;-73
2023/01/01 02:09:03;;;;;;;18.83;9.90;;;;;;;17.43;62.71;100672.44;5070816;28;20052;-71
2023/01/01 02:11:30;;;;;;;12.98;7.03;;;;;;;17.36;63.33;100678.22;5070750;28;20122;-71
2023/01/01 02:13:59;;;;;;;18.25;9.48;;;;;;;17.35;63.04;100668.28;5069630;28;20044;-72
2023/01/01 02:16:54;;;;;;;24.35;12.32;;;;;;;17.24;62.03;100676.94;5070023;28;20052;-72
2023/01/01 02:19:39;;;;;;;33.20;11.60;;;;;;;17.33;61.94;100665.13;5067842;28;20058;-72
2023/01/01 02:22:10;;;;;;;15.93;6.97;;;;;;;17.34;62.55;100669.47;5069245;28;20056;-71
2023/01/01 02:24:47;;;;;;;19.38;7.10;;;;;;;17.22;61.28;100671.00;5070015;28;20050;-71
2023/01/01 02:27:22;;;;;;;20.42;6.72;;;;;;;17.23;61.38;100657.81;5067367;28;20044;-72
2023/01/01 02:30:04;;;;;;;14.05;5.70;;;;;;;17.27;60.66;100676.06;5071016;28;20052;-71
2023/01/01 02:32:34;;;;;;;21.67;9.88;;;;;;;17.18;61.66;100663.97;5068736;28;20047;-73
2023/01/01 02:37:59;;;;;;;20.73;8.35;;;;;;;17.14;61.30;100646.50;5064193;28;20049;-71
2023/01/01 02:40:27;;;;;;;16.65;7.38;;;;;;;17.16;61.21;100663.63;5067385;28;20040;-72
2023/01/01 02:42:55;;;;;;;21.00;10.93;;;;;;;17.09;61.88;100672.22;5068828;28;20048;-72
2023/01/01 02:45:21;;;;;;;18.15;7.28;;;;;;;17.04;62.11;100667.94;5069892;28;20049;-72
2023/01/01 02:47:48;;;;;;;16.67;7.68;;;;;;;17.05;61.53;100677.88;5065521;28;20049;-73
2023/01/01 02:50:34;;;;;;;26.42;8.52;;;;;;;17.00;61.84;100655.28;5075229;28;20044;-71
2023/01/01 02:53:11;;;;;;;13.45;6.35;;;;;;;16.92;61.73;100688.25;5068988;28;20127;-71
2023/01/01 02:55:53;;;;;;;13.80;4.97;;;;;;;16.98;61.79;100666.91;5069799;28;20060;-72
2023/01/01 03:01:39;;;;;;;10.75;4.45;;;;;;;16.97;62.24;100698.88;5069055;28;20086;-73
2023/01/01 03:04:16;;;;;;;12.82;5.50;;;;;;;16.91;61.96;100677.53;5066568;28;20040;-72
2023/01/01 03:06:53;;;;;;;17.50;7.00;;;;;;;17.00;62.40;100670.06;5062017;28;20040;-72
2023/01/01 03:09:47;;;;;;;11.32;4.85;;;;;;;16.96;61.98;100672.19;5068249;28;20127;-71
2023/01/01 03:12:24;;;;;;;12.43;5.20;;;;;;;16.87;61.60;100710.38;5068686;28;20044;-71
2023/01/01 03:15:07;;;;;;;6.07;2.72;;;;;;;16.98;62.71;100688.50;5066897;28;20143;-72
2023/01/01 03:17:40;;;;;;;9.48;3.78;;;;;;;17.00;62.37;100680.44;5068827;28;20428;-71
2023/01/01 03:20:14;;;;;;;6.18;2.50;;;;;;;16.87;62.65;100697.16;5076122;28;20060;-72
2023/01/01 03:22:43;;;;;;;12.18;3.05;;;;;;;16.90;62.12;100696.28;5064293;28;20402;-73
2023/01/01 03:25:21;;;;;;;11.05;3.15;;;;;;;16.86;62.39;100692.81;5064222;28;20531;-73
2023/01/01 03:27:51;;;;;;;1.30;1.08;;;;;;;16.95;62.80;100700.56;5068330;28;20680;-73
2023/01/01 03:30:20;;;;;;;4.13;1.73;;;;;;;16.88;63.75;100692.38;5068270;28;20044;-73
2023/01/01 03:33:04;;;;;;;3.22;1.48;;;;;;;16.88;63.83;100673.56;5068157;28;20040;-73
2023/01/01 03:35:37;;;;;;;2.72;1.23;;;;;;;16.80;64.26;100682.59;5067939;28;20040;-73
2023/01/01 03:38:14;;;;;;;7.97;1.67;;;;;;;16.84;64.44;100686.09;5066586;28;20048;-71
2023/01/01 03:40:43;;;;;;;1.42;1.10;;;;;;;16.79;64.47;100686.63;5061620;28;20094;-71
2023/01/01 03:43:15;;;;;;;2.20;1.25;;;;;;;16.74;64.73;100713.09;5066419;28;20059;-74
2023/01/01 03:45:44;;;;;;;6.13;1.80;;;;;;;16.83;65.10;100707.66;5068418;28;20469;-70
2023/01/01 03:48:11;;;;;;;2.88;1.25;;;;;;;16.79;64.95;100692.22;5068097;28;20052;-70
2023/01/01 03:51:20;;;;;;;8.20;2.30;;;;;;;16.76;64.77;100704.25;5070504;28;20049;-73
2023/01/01 03:53:51;;;;;;;7.03;1.35;;;;;;;16.81;65.04;100700.94;5044264;28;20052;-71
2023/01/01 03:56:40;;;;;;;6.85;1.45;;;;;;;16.89;65.05;100711.50;5044563;28;20068;-71
2023/01/01 03:59:14;;;;;;;5.05;1.63;;;;;;;16.81;65.56;100714.91;5044514;28;20057;-70
2023/01/01 04:01:51;;;;;;;5.38;1.73;;;;;;;16.74;65.48;100731.88;5044830;28;20052;-71
2023/01/01 04:04:18;;;;;;;5.22;1.98;;;;;;;16.81;65.93;100718.47;5028549;28;20053;-72
2023/01/01 04:06:46;;;;;;;5.93;1.75;;;;;;;16.70;66.35;100720.78;5039584;28;20056;-73
2023/01/01 04:09:16;;;;;;;4.32;1.15;;;;;;;16.77;66.18;100728.22;5044384;28;20060;-71
2023/01/01 04:12:00;;;;;;;3.45;1.35;;;;;;;16.72;67.22;100731.50;5038766;28;20045;-70
2023/01/01 04:14:38;;;;;;;3.60;1.38;;;;;;;16.69;69.32;100724.81;5040745;28;20558;-72
2023/01/01 04:17:06;;;;;;;7.25;1.88;;;;;;;16.71;70.61;100727.94;5044730;28;20057;-72
2023/01/01 04:19:33;;;;;;;6.93;2.28;;;;;;;16.51;71.52;100774.75;5044692;28;20060;-73
2023/01/01 04:22:00;;;;;;;5.20;1.77;;;;;;;16.58;71.76;100743.84;5040666;28;20041;-73
2023/01/01 04:24:27;;;;;;;3.03;1.17;;;;;;;16.59;71.81;100736.25;5054413;28;20063;-71
2023/01/01 04:26:55;;;;;;;6.13;1.90;;;;;;;16.57;72.11;100727.53;5067936;28;20045;-72
2023/01/01 04:29:22;;;;;;;3.75;1.35;;;;;;;16.54;72.75;100725.59;5064345;28;20048;-73
2023/01/01 04:31:49;;;;;;;3.97;1.75;;;;;;;16.58;73.28;100732.69;5068120;28;20079;-71
2023/01/01 04:34:15;;;;;;;6.00;1.80;;;;;;;16.56;73.34;100737.91;5071058;28;20101;-71
2023/01/01 04:36:42;;;;;;;10.60;2.55;;;;;;;16.56;72.47;100763.03;5067003;28;20414;-71
2023/01/01 04:39:08;;;;;;;6.90;1.70;;;;;;;16.72;73.46;100737.91;5068433;28;20048;-72
2023/01/01 04:41:35;;;;;;;6.47;1.75;;;;;;;16.62;73.76;100738.97;5063259;28;20045;-71
2023/01/01 04:44:02;;;;;;;5.60;2.10;;;;;;;16.59;73.59;100736.25;5065929;28;20052;-72
2023/01/01 04:46:28;;;;;;;2.13;1.13;;;;;;;16.63;73.67;100742.50;5076708;28;20634;-71
2023/01/01 04:48:55;;;;;;;5.90;1.75;;;;;;;16.64;74.25;100744.09;5071783;28;20490;-72
2023/01/01 04:51:21;;;;;;;3.38;1.55;;;;;;;16.67;75.05;100751.63;5071517;28;20516;-71
2023/01/01 04:53:48;;;;;;;7.47;1.35;;;;;;;16.65;75.48;100770.81;5069842;28;20518;-71
2023/01/01 04:56:17;;;;;;;8.18;2.33;;;;;;;16.59;75.02;100767.75;5069717;28;20054;-72
2023/01/01 04:58:45;;;;;;;6.65;1.60;;;;;;;16.64;77.28;100786.78;5071668;28;20051;-73
2023/01/01 05:01:30;;;;;;;5.38;1.75;;;;;;;16.56;77.01;100776.22;5071100;28;20532;-72
2023/01/01 05:03:58;;;;;;;3.40;1.10;;;;;;;16.58;78.43;100769.00;5068504;28;20052;-71
2023/01/01 05:06:25;;;;;;;11.25;2.70;;;;;;;16.44;81.50;100774.13;5070844;28;20066;-72
2023/01/01 05:08:54;;;;;;;9.82;3.05;;;;;;;16.55;81.88;100761.47;5070315;28;20135;-72
2023/01/01 05:11:26;;;;;;;8.45;1.90;;;;;;;16.52;83.13;100776.31;5070447;28;20068;-73
2023/01/01 05:13:57;;;;;;;11.27;2.72;;;;;;;16.38;83.13;100789.78;5065104;28;20524;-73
2023/01/01 05:16:35;;;;;;;5.28;2.22;;;;;;;16.44;82.83;100772.09;5072655;28;20068;-71
2023/01/01 05:19:02;;;;;;;3.55;1.45;;;;;;;16.49;82.26;100771.59;5070788;28;20155;-71
2023/01/01 05:21:34;;;;;;;3.72;1.50;;;;;;;16.45;83.05;100770.09;5071467;28;20057;-71
2023/01/01 05:24:06;;;;;;;3.28;1.60;;;;;;;16.46;83.08;100768.88;5070472;28;20435;-72
2023/01/01 05:26:35;;;;;;;6.43;1.92;;;;;;;16.45;82.57;100768.13;5066606;28;20052;-72
2023/01/01 05:29:03;;;;;;;8.85;1.98;;;;;;;16.48;82.77;100758.06;5070888;28;20047;-72
2023/01/01 05:31:37;;;;;;;6.38;1.58;;;;;;;16.58;82.26;100743.06;5073706;28;20787;-71
2023/01/01 05:34:04;;;;;;;6.65;1.63;;;;;;;16.60;82.01;100746.22;5070864;28;20040;-71
2023/01/01 05:36:33;;;;;;;9.88;2.10;;;;;;;16.50;83.33;100753.59;5070060;28;20048;-71
2023/01/01 05:38:59;;;;;;;0.68;0.47;;;;;;;16.56;83.14;100773.41;5070549;28;20049;-72
2023/01/01 05:41:26;;;;;;;7.93;1.67;;;;;;;16.49;84.46;100779.97;5066555;28;20044;-70
2023/01/01 05:43:53;;;;;;;7.60;1.70;;;;;;;16.49;84.28;100771.59;5069334;28;20074;-72
2023/01/01 05:46:22;;;;;;;6.50;1.33;;;;;;;16.47;83.73;100782.41;5068387;28;20048;-72
2023/01/01 05:48:50;;;;;;;3.17;1.02;;;;;;;16.45;84.55;100796.03;5069292;28;20048;-71
2023/01/01 05:51:21;;;;;;;5.45;1.60;;;;;;;16.49;84.07;100776.38;5069829;28;20086;-71
2023/01/01 05:53:48;;;;;;;6.50;1.85;;;;;;;16.48;83.89;100775.63;5069295;28;20520;-71
2023/01/01 05:56:15;;;;;;;7.75;1.80;;;;;;;16.55;83.38;100780.25;5064790;28;20055;-71
2023/01/01 05:58:43;;;;;;;8.45;1.30;;;;;;;16.51;83.69;100801.88;5070484;28;20049;-71
2023/01/01 06:01:13;;;;;;;5.93;1.77;;;;;;;16.54;84.09;100809.41;5070243;28;20063;-71
2023/01/01 06:03:41;;;;;;;3.95;0.98;;;;;;;16.52;84.27;100823.78;5069817;28;20106;-71
2023/01/01 06:06:14;;;;;;;7.07;2.17;;;;;;;16.51;84.67;100835.41;5070310;28;20052;-71
2023/01/01 06:08:41;;;;;;;5.35;1.75;;;;;;;16.50;87.58;100831.06;5068508;28;20048;-73
2023/01/01 06:11:10;;;;;;;5.43;1.70;;;;;;;16.49;88.36;100821.88;5065355;28;20613;-72
2023/01/01 06:13:37;;;;;;;6.20;1.70;;;;;;;16.38;91.07;100812.94;5064237;28;20055;-73
2023/01/01 06:16:04;;;;;;;6.45;2.00;;;;;;;16.35;90.92;100835.34;5069466;28;20043;-72
2023/01/01 06:18:33;;;;;;;11.07;2.33;;;;;;;16.31;92.01;100846.59;5070285;28;20398;-70
2023/01/01 06:21:08;;;;;;;2.70;1.65;;;;;;;16.27;90.80;100845.88;5069703;28;20055;-72
2023/01/01 06:23:35;;;;;;;2.50;1.05;;;;;;;16.28;91.21;100838.28;5058958;28;20048;-72
2023/01/01 06:26:14;;;;;;;14.40;1.77;;;;;;;16.19;90.42;100860.41;5067738;28;20048;-73
2023/01/01 06:28:41;;;;;;;3.53;1.38;;;;;;;16.32;90.07;100841.78;5075362;28;20516;-72
2023/01/01 06:31:10;;;;;;;8.45;1.92;;;;;;;16.17;90.85;100854.50;5073198;28;20075;-71
2023/01/01 06:33:38;;;;;;;6.53;2.00;;;;;;;16.31;90.48;100857.78;5061415;28;20049;-70
2023/01/01 06:36:07;;;;;;;4.80;1.73;;;;;;;16.30;90.23;100861.75;5069646;28;20044;-71
2023/01/01 06:38:36;;;;;;;6.13;1.08;;;;;;;16.39;89.49;100877.94;5067590;28;20061;-71
2023/01/01 06:41:09;;;;;;;5.50;1.50;;;;;;;16.38;89.56;100871.56;5065191;28;20055;-72
2023/01/01 06:43:35;;;;;;;6.20;1.65;;;;;;;16.30;89.67;100863.78;5066653;28;20147;-71
2023/01/01 06:46:16;;;;;;;2.53;0.98;;;;;;;16.32;88.96;100884.47;5064689;28;20041;-73
2023/01/01 06:48:44;;;;;;;10.45;2.13;;;;;;;16.40;89.27;100879.53;5062363;28;20493;-73
2023/01/01 06:51:22;;;;;;;3.97;1.65;;;;;;;16.36;89.15;100881.59;5069080;28;20762;-71
2023/01/01 06:53:49;;;;;;;5.50;2.13;;;;;;;16.32;89.13;100911.59;5063869;28;20040;-74
2023/01/01 06:56:17;;;;;;;7.88;1.60;;;;;;;16.38;88.83;100904.28;5063276;28;20040;-72
2023/01/01 06:58:43;;;;;;;3.05;1.45;;;;;;;16.43;88.31;100907.38;5067514;28;20127;-72
2023/01/01 07:01:17;;;;;;;8.70;2.80;;;;;;;16.37;88.47;100894.34;5068408;28;20041;-71
2023/01/01 07:03:56;;;;;;;4.18;1.33;;;;;;;16.43;90.67;100907.38;5066451;28;20490;-72
2023/01/01 07:06:24;;;;;;;4.38;1.48;;;;;;;16.31;97.92;100896.06;5067333;28;20040;-72
2023/01/01 07:08:51;;;;;;;11.52;1.95;;;;;;;16.25;100.00;100909.75;5067666;28;20051;-72
2023/01/01 07:11:18;;;;;;;8.93;1.63;;;;;;;16.10;100.00;100897.28;5065737;28;20090;-72
2023/01/01 07:13:45;;;;;;;2.70;1.20;;;;;;;16.01;100.00;100910.25;5057418;28;20110;-72
2023/01/01 07:16:11;;;;;;;6.00;1.90;;;;;;;15.96;100.00;100916.34;5065766;28;20044;-72
2023/01/01 07:18:39;;;;;;;4.43;1.50;;;;;;;15.92;100.00;100923.97;5069135;28;20046;-72
2023/01/01 07:21:23;;;;;;;4.57;1.88;;;;;;;15.89;100.00;100919.28;5066227;28;20110;-73
2023/01/01 07:23:55;;;;;;;4.10;1.60;;;;;;;15.95;100.00;100929.50;5065131;28;20044;-73
2023/01/01 07:26:23;;;;;;;4.28;1.40;;;;;;;15.93;100.00;100925.56;5067395;28;20086;-73
2023/01/01 07:28:50;;;;;;;3.72;1.42;;;;;;;15.88;100.00;100935.22;5065668;28;20122;-73
2023/01/01 07:31:17;;;;;;;5.40;1.20;;;;;;;15.83;100.00;100944.06;5054163;28;20132;-73
2023/01/01 07:33:44;;;;;;;3.90;1.35;;;;;;;15.82;100.00;100941.75;5062169;28;20135;-73
2023/01/01 07:36:10;;;;;;;5.20;1.80;;;;;;;15.65;100.00;100934.50;5072528;28;20039;-74
2023/01/01 07:38:37;;;;;;;1.95;0.98;;;;;;;15.57;100.00;100959.69;5065322;28;20048;-71
2023/01/01 07:41:04;;;;;;;6.18;1.58;;;;;;;15.51;100.00;100974.56;5066999;28;20040;-71
2023/01/01 07:43:30;;;;;;;9.82;2.58;;;;;;;15.33;100.00;100976.84;5064460;28;20137;-71
2023/01/01 07:46:00;;;;;;;12.68;1.98;;;;;;;15.20;100.00;100973.06;5068989;28;20063;-71
2023/01/01 07:48:27;;;;;;;6.15;2.03;;;;;;;15.10;100.00;100980.38;5065590;28;20139;-72
2023/01/01 07:50:55;;;;;;;3.95;1.45;;;;;;;14.98;100.00;100989.31;5064304;28;20076;-71
2023/01/01 07:53:21;;;;;;;6.07;2.03;;;;;;;14.83;100.00;100974.03;5067519;28;20049;-71
2023/01/01 07:55:48;;;;;;;2.33;0.93;;;;;;;14.88;100.00;100972.75;5066716;28;20047;-71
2023/01/01 07:58:14;;;;;;;8.20;2.40;;;;;;;14.72;100.00;100989.31;5067264;28;20051;-71
2023/01/01 08:00:45;;;;;;;9.38;2.00;;;;;;;14.63;100.00;100975.91;5072005;28;20055;-72
2023/01/01 08:03:11;;;;;;;5.45;1.75;;;;;;;14.63;100.00;100987.03;5067626;28;20040;-72
2023/01/01 08:05:38;;;;;;;6.85;1.92;;;;;;;14.71;100.00;100990.50;5068526;28;20468;-72
2023/01/01 08:08:04;;;;;;;4.63;1.67;;;;;;;14.67;100.00;100998.91;5061494;28;20048;-73
2023/01/01 08:10:31;;;;;;;5.35;2.08;;;;;;;14.65;100.00;101006.88;5066978;28;20040;-71
2023/01/01 08:13:01;;;;;;;6.25;2.10;;;;;;;14.59;100.00;101016.13;5067948;28;20048;-70
2023/01/01 08:15:29;;;;;;;6.28;1.92;;;;;;;14.64;100.00;101008.09;5062589;28;20040;-71
2023/01/01 08:17:56;;;;;;;8.90;2.45;;;;;;;14.61;100.00;101014.50;5072473;28;20040;-71
2023/01/01 08:20:24;;;;;;;6.82;2.22;;;;;;;14.62;100.00;101032.78;5074146;28;20426;-71
2023/01/01 08:22:50;;;;;;;4.63;1.50;;;;;;;14.67;100.00;101029.56;5066161;28;20053;-68
2023/01/01 08:25:17;;;;;;;8.23;2.53;;;;;;;14.60;100.00;101038.00;5068042;28;20059;-70
2023/01/01 08:27:44;;;;;;;8.52;3.35;;;;;;;14.69;100.00;101038.28;5067452;28;20054;-72
2023/01/01 08:30:12;;;;;;;8.52;1.65;;;;;;;14.75;100.00;101025.44;5067923;28;20047;-72
2023/01/01 08:32:39;;;;;;;7.95;2.63;;;;;;;14.75;100.00;101035.81;5063516;28;20060;-72
2023/01/01 08:35:06;;;;;;;9.73;1.95;;;;;;;14.82;100.00;101014.22;5067346;28;20067;-71
2023/01/01 08:37:32;;;;;;;8.05;2.53;;;;;;;14.87;100.00;101024.91;5066747;28;20391;-70
2023/01/01 08:39:58;;;;;;;6.15;2.33;;;;;;;14.87;100.00;101036.06;5068203;28;20044;-70
2023/01/01 08:42:25;;;;;;;7.70;2.03;;;;;;;15.00;100.00;101048.22;5067184;28;20053;-71
2023/01/01 08:44:51;;;;;;;8.82;2.58;;;;;;;15.03;100.00;101054.94;5066404;28;20410;-71
2023/01/01 08:47:24;;;;;;;12.68;2.80;;;;;;;15.04;100.00;101062.88;5066260;28;20134;-70
2023/01/01 08:49:51;;;;;;;8.88;1.98;;;;;;;15.14;100.00;101064.72;5067368;28;20056;-70
2023/01/01 08:52:18;;;;;;;6.40;1.77;;;;;;;15.13;100.00;101076.28;5067519;28;20048;-70
2023/01/01 08:54:44;;;;;;;4.53;1.70;;;;;;;15.20;100.00;101077.00;5067007;28;20419;-70
2023/01/01 08:57:11;;;;;;;2.70;1.15;;;;;;;15.21;100.00;101083.34;5064323;28;20048;-70
2023/01/01 08:59:38;;;;;;;10.48;2.58;;;;;;;15.18;100.00;101075.81;5067508;28;20063;-69
2023/01/01 09:02:05;;;;;;;7.10;2.15;;;;;;;15.29;100.00;101074.44;5028465;28;20059;-71
2023/01/01 09:04:32;;;;;;;3.97;1.13;;;;;;;15.27;100.00;101095.59;5042320;28;20133;-71
2023/01/01 09:06:59;;;;;;;9.43;3.00;;;;;;;15.25;100.00;101086.88;5041448;28;20792;-71
2023/01/01 09:09:26;;;;;;;5.07;1.70;;;;;;;15.27;100.00;101101.97;5045090;28;20805;-72
2023/01/01 09:12:02;;;;;;;2.42;1.27;;;;;;;15.35;100.00;101114.59;5044726;28;20827;-71
2023/01/01 09:14:30;;;;;;;8.43;2.47;;;;;;;15.33;100.00;101110.66;4940292;28;20061;-73
2023/01/01 09:16:57;;;;;;;7.53;2.33;;;;;;;15.44;100.00;101112.13;4988804;28;61117;-72
2023/01/01 09:19:23;;;;;;;6.88;2.03;;;;;;;15.34;100.00;101120.59;5022202;28;20053;-73
2023/01/01 09:21:50;;;;;;;7.38;1.83;;;;;;;15.40;100.00;101111.34;5029762;28;20045;-72
2023/01/01 09:24:17;;;;;;;5.38;1.55;;;;;;;15.37;100.00;101123.38;5025764;28;20053;-71
2023/01/01 09:26:44;;;;;;;13.32;2.58;;;;;;;15.36;100.00;101124.56;5031980;28;20051;-71
2023/01/01 09:29:11;;;;;;;8.63;2.17;;;;;;;15.41;100.00;101126.91;5024176;28;20056;-72
2023/01/01 09:31:37;;;;;;;10.70;1.90;;;;;;;15.48;100.00;101115.63;5031448;28;20056;-71
2023/01/01 09:34:04;;;;;;;10.20;2.70;;;;;;;15.41;100.00;101124.13;5026646;28;20056;-72
2023/01/01 09:36:32;;;;;;;8.70;2.03;;;;;;;15.48;100.00;101118.44;5024565;28;20033;-70
2023/01/01 09:39:00;;;;;;;3.90;1.20;;;;;;;15.55;100.00;101127.91;5023591;28;20048;-73
2023/01/01 09:41:40;;;;;;;11.80;2.65;;;;;;;15.62;100.00;101122.22;5025739;28;20045;-72
2023/01/01 09:44:54;;;;;;;9.77;2.97;;;;;;;15.41;100.00;101135.25;5042423;28;20049;-70
2023/01/01 09:47:29;;;;;;;10.48;2.42;;;;;;;15.60;100.00;101124.63;5015773;28;20052;-70
2023/01/01 09:49:59;;;;;;;;;;;;;;;15.51;100.00;101133.53;5030136;28;20487;-70
2023/01/01 09:52:36;;;;;;;7.57;2.40;;;;;;;15.42;100.00;101142.41;5023717;28;19935;-71
2023/01/01 09:55:15;;;;;;;1.00;0.75;;;;;;;15.55;100.00;101137.03;5026732;28;20048;-73
2023/01/01 09:57:42;;;;;;;4.43;1.85;;;;;;;15.50;100.00;101143.88;5025920;28;20053;-70
2023/01/01 10:00:14;;;;;;;3.63;1.52;;;;;;;15.49;100.00;101136.72;5022405;28;20057;-70
2023/01/01 10:03:02;;;;;;;9.63;2.58;;;;;;;15.38;100.00;101140.88;5028344;28;20048;-72
2023/01/01 10:05:52;;;;;;;7.25;1.73;;;;;;;15.48;100.00;101153.88;5026822;28;20135;-73
2023/01/01 10:08:53;;;;;;;2.95;0.85;;;;;;;15.59;100.00;101156.53;5023698;28;20049;-72
2023/01/01 10:11:28;;;;;;;4.57;1.88;;;;;;;15.57;100.00;101154.16;5025990;28;20056;-70
2023/01/01 10:13:58;;;;;;;7.57;2.08;;;;;;;15.49;100.00;101158.25;5028623;28;21270;-69
2023/01/01 10:16:38;;;;;;;6.53;2.28;;;;;;;15.48;100.00;101171.41;5029896;28;20055;-73
2023/01/01 10:19:26;;;;;;;5.43;1.30;;;;;;;15.49;100.00;101161.84;5021928;28;20052;-72
2023/01/01 10:21:57;;;;;;;4.88;2.28;;;;;;;15.49;100.00;101158.25;5020267;28;20056;-71
2023/01/01 10:24:37;;;;;;;5.13;1.42;;;;;;;15.57;100.00;101153.38;5024883;28;20059;-71
2023/01/01 10:27:05;;;;;;;3.88;1.75;;;;;;;15.52;100.00;101163.78;5028421;28;20045;-70
2023/01/01 10:29:44;;;;;;;5.35;1.67;;;;;;;15.57;100.00;101143.78;5015149;28;20772;-72
2023/01/01 10:32:22;;;;;;;8.15;2.05;;;;;;;15.57;100.00;101154.94;5020108;28;20201;-72
2023/01/01 10:34:50;;;;;;;4.85;1.40;;;;;;;15.53;100.00;101137.47;5025631;28;20064;-70
2023/01/01 10:37:17;;;;;;;8.90;2.63;;;;;;;15.57;100.00;101140.97;5020588;28;20146;-72
2023/01/01 10:39:45;;;;;;;5.25;2.13;;;;;;;15.55;100.00;101136.28;5025741;28;20798;-71
2023/01/01 10:42:14;;;;;;;10.07;2.17;;;;;;;15.62;100.00;101133.38;5043839;28;20814;-71
2023/01/01 10:44:41;;;;;;;4.53;1.77;;;;;;;15.63;100.00;101141.31;5020049;28;20980;-71
2023/01/01 10:47:25;;;;;;;9.88;3.30;;;;;;;15.59;100.00;101132.19;5025484;28;20052;-72
2023/01/01 10:49:56;;;;;;;8.82;2.13;;;;;;;15.68;100.00;101148.41;5023378;28;20051;-72
2023/01/01 10:52:26;;;;;;;1.35;0.82;;;;;;;15.75;100.00;101131.56;5028153;28;20063;-71
2023/01/01 10:54:53;;;;;;;2.80;1.25;;;;;;;15.76;100.00;101135.94;5027443;28;20049;-72
2023/01/01 10:57:31;;;;;;;4.00;1.80;;;;;;;15.70;100.00;101132.84;5023680;28;20045;-72
2023/01/01 11:00:09;;;;;;;4.07;1.83;;;;;;;15.64;100.00;101142.91;5017792;28;20045;-72
2023/01/01 11:02:36;;;;;;;5.93;1.92;;;;;;;15.74;100.00;101114.03;5017759;28;20598;-71
2023/01/01 11:05:18;;;;;;;5.18;1.63;;;;;;;15.73;100.00;101137.59;5009959;28;20056;-75
2023/01/01 11:07:48;;;;;;;10.30;2.10;;;;;;;15.87;100.00;101119.81;5020743;28;20048;-72
2023/01/01 11:10:19;;;;;;;2.25;1.13;;;;;;;15.82;100.00;101132.25;5020885;28;20134;-73
2023/01/01 11:12:46;;;;;;;4.78;1.90;;;;;;;15.87;100.00;101139.34;5015306;28;20052;-75
2023/01/01 11:15:41;;;;;;;8.85;1.75;;;;;;;15.77;100.00;101159.84;5011315;28;20045;-72
2023/01/01 11:18:21;;;;;;;7.97;2.08;;;;;;;15.85;100.00;101159.31;5024628;28;20059;-71
2023/01/01 11:20:57;;;;;;;5.47;1.50;;;;;;;15.84;100.00;101160.53;5023152;28;20063;-73
2023/01/01 11:23:35;;;;;;;2.03;0.60;;;;;;;15.98;100.00;101167.88;5021997;28;20055;-72
2023/01/01 11:26:11;;;;;;;6.70;2.13;;;;;;;15.93;100.00;101163.56;5023784;28;20047;-73
2023/01/01 11:28:39;;;;;;;9.90;2.30;;;;;;;16.09;100.00;101169.28;5017545;28;20731;-70
2023/01/01 11:31:12;;;;;;;4.88;1.85;;;;;;;16.31;100.00;101167.72;5019806;28;20061;-73
2023/01/01 11:33:43;;;;;;;8.38;2.55;;;;;;;16.14;100.00;101168.00;5017747;28;20510;-71
2023/01/01 11:36:10;;;;;;;8.25;2.28;;;;;;;16.24;100.00;101184.59;5024000;28;20876;-74
2023/01/01 11:38:37;;;;;;;3.92;1.65;;;;;;;16.14;100.00;101179.97;5015631;28;20049;-71
2023/01/01 11:41:05;;;;;;;8.93;2.45;;;;;;;16.08;100.00;101186.44;5016798;28;20053;-71
2023/01/01 11:43:42;;;;;;;5.75;2.35;;;;;;;16.01;100.00;101183.78;5020142;28;20651;-72